createdAt,value
2022-09-12T00:00:20.107Z,55.30
2022-09-12T00:03:21.444Z,55.40
2022-09-12T00:06:24.614Z,55.30
2022-09-12T00:09:29.410Z,55.40
2022-09-12T00:12:31.666Z,55.20
2022-09-12T00:15:37.539Z,55.20
2022-09-12T00:18:39.264Z,55.20
2022-09-12T00:21:41.260Z,55.30
2022-09-12T00:24:42.605Z,55.30
2022-09-12T00:27:44.444Z,55.30
2022-09-12T00:30:47.016Z,55.20
2022-09-12T00:33:48.313Z,55.40
2022-09-12T00:36:49.568Z,55.30
2022-09-12T00:39:51.164Z,55.20
2022-09-12T00:42:53.061Z,55.30
2022-09-12T00:45:54.352Z,55.40
2022-09-12T00:48:58.113Z,55.20
2022-09-12T00:52:02.639Z,55.40
2022-09-12T00:55:07.163Z,55.30
2022-09-12T00:58:11.376Z,55.20
2022-09-12T01:01:12.928Z,55.30
2022-09-12T01:04:14.979Z,55.40
2022-09-12T01:07:16.255Z,55.30
2022-09-12T01:10:18.011Z,55.40
2022-09-12T01:13:20.005Z,55.40
2022-09-12T01:16:21.311Z,55.40
2022-09-12T01:19:32.655Z,55.10
2022-09-12T01:22:46.476Z,55.20
2022-09-12T01:25:58.937Z,55.30
2022-09-12T01:29:10.124Z,55.50
2022-09-12T01:32:18.258Z,55.20
2022-09-12T01:35:22.572Z,55.10
2022-09-12T01:38:25.885Z,55.30
2022-09-12T01:41:38.025Z,55.40
2022-09-12T01:44:44.066Z,55.40
2022-09-12T01:47:49.216Z,55.30
2022-09-12T01:50:52.668Z,55.10
2022-09-12T01:53:57.234Z,55.50
2022-09-12T01:57:00.960Z,55.30
2022-09-12T02:00:04.623Z,55.40
2022-09-12T02:03:19.454Z,55.30
2022-09-12T02:06:24.837Z,55.30
2022-09-12T02:09:28.925Z,55.80
2022-09-12T02:12:35.177Z,55.20
2022-09-12T02:15:37.925Z,55.20
2022-09-12T02:18:43.870Z,55.10
2022-09-12T02:21:47.631Z,55.20
2022-09-12T02:24:50.202Z,55.30
2022-09-12T02:27:54.233Z,55.20
2022-09-12T02:30:58.741Z,55.40
2022-09-12T02:34:08.905Z,55.10
2022-09-12T02:37:15.427Z,55.30
2022-09-12T02:40:17.295Z,55.30
2022-09-12T02:43:18.738Z,55.30
2022-09-12T02:46:21.661Z,55.40
2022-09-12T02:49:23.451Z,55.20
2022-09-12T02:52:24.995Z,55.30
2022-09-12T02:55:26.334Z,55.30
2022-09-12T02:58:29.866Z,55.40
2022-09-12T03:01:39.977Z,55.30
2022-09-12T03:04:51.398Z,55.30
2022-09-12T03:08:01.199Z,55.30
2022-09-12T03:11:08.414Z,55.30
2022-09-12T03:14:18.551Z,55.10
2022-09-12T03:17:24.854Z,55.30
2022-09-12T03:20:33.014Z,55.70
2022-09-12T03:23:37.286Z,55.20
2022-09-12T03:26:42.026Z,55.20
2022-09-12T03:29:44.018Z,55.20
2022-09-12T03:32:46.499Z,55.30
2022-09-12T03:35:51.871Z,55.20
2022-09-12T03:38:53.225Z,55.40
2022-09-12T03:41:54.914Z,55.20
2022-09-12T03:44:56.273Z,55.30
2022-09-12T03:47:58.206Z,55.80
2022-09-12T03:51:00.504Z,55.30
2022-09-12T03:54:01.769Z,55.20
2022-09-12T03:57:03.120Z,55.40
2022-09-12T04:00:04.931Z,55.40
2022-09-12T04:03:13.789Z,55.30
2022-09-12T04:06:19.955Z,55.30
2022-09-12T04:09:21.284Z,55.40
2022-09-12T04:12:22.541Z,55.30
2022-09-12T04:15:27.048Z,55.50
2022-09-12T04:18:29.038Z,55.40
2022-09-12T04:21:31.256Z,55.40
2022-09-12T04:24:32.730Z,55.30
2022-09-12T04:27:34.091Z,55.40
2022-09-12T04:30:35.428Z,55.20
2022-09-12T04:33:36.744Z,55.30
2022-09-12T04:36:42.005Z,55.40
2022-09-12T04:39:43.238Z,55.30
2022-09-12T04:42:44.618Z,55.50
2022-09-12T04:45:45.971Z,55.30
2022-09-12T04:48:48.251Z,55.40
2022-09-12T04:51:52.286Z,55.60
2022-09-12T04:54:53.543Z,55.50
2022-09-12T04:57:54.824Z,55.50
2022-09-12T05:00:56.103Z,55.30
2022-09-12T05:03:59.016Z,55.30
2022-09-12T05:07:01.178Z,55.40
2022-09-12T05:10:03.309Z,55.50
2022-09-12T05:13:04.570Z,55.30
2022-09-12T05:16:07.011Z,55.60
2022-09-12T05:19:10.163Z,55.30
2022-09-12T05:22:12.124Z,55.40
2022-09-12T05:25:13.475Z,55.50
2022-09-12T05:28:14.752Z,55.50
2022-09-12T05:31:16.914Z,55.40
2022-09-12T05:34:18.411Z,55.30
2022-09-12T05:37:20.601Z,55.30
2022-09-12T05:40:22.061Z,55.50
2022-09-12T05:43:23.695Z,55.50
2022-09-12T05:46:25.845Z,55.50
2022-09-12T05:49:27.238Z,55.40
2022-09-12T05:52:29.456Z,55.40
2022-09-12T05:55:32.411Z,56.10
2022-09-12T05:58:33.952Z,55.40
2022-09-12T06:01:35.310Z,55.60
2022-09-12T06:04:40.412Z,55.30
2022-09-12T06:07:42.529Z,55.50
2022-09-12T06:10:43.875Z,55.40
2022-09-12T06:13:45.475Z,55.50
2022-09-12T06:16:47.710Z,55.50
2022-09-12T06:19:49.448Z,55.70
2022-09-12T06:22:53.068Z,55.50
2022-09-12T06:25:54.410Z,55.50
2022-09-12T06:28:56.883Z,55.50
2022-09-12T06:31:58.172Z,55.50
2022-09-12T06:34:59.584Z,55.50
2022-09-12T06:38:01.815Z,55.50
2022-09-12T06:41:04.186Z,55.40
2022-09-12T06:44:06.137Z,55.50
2022-09-12T06:47:07.532Z,55.40
2022-09-12T06:50:09.011Z,55.50
2022-09-12T06:53:10.882Z,55.30
2022-09-12T06:56:13.591Z,55.30
2022-09-12T06:59:14.893Z,55.30
2022-09-12T07:02:16.422Z,55.30
2022-09-12T07:05:17.738Z,55.70
2022-09-12T07:08:20.071Z,55.30
2022-09-12T07:11:22.842Z,55.20
2022-09-12T07:14:25.280Z,55.20
2022-09-12T07:17:26.721Z,55.40
2022-09-12T07:20:28.994Z,55.30
2022-09-12T07:23:30.913Z,54.90
2022-09-12T07:26:32.276Z,55.20
2022-09-12T07:29:36.941Z,55.20
2022-09-12T07:32:38.957Z,54.70
2022-09-12T07:35:40.269Z,54.90
2022-09-12T07:38:43.232Z,55.00
2022-09-12T07:41:47.831Z,54.90
2022-09-12T07:44:51.830Z,55.00
2022-09-12T07:47:53.299Z,54.70
2022-09-12T07:50:59.035Z,54.70
2022-09-12T07:54:01.969Z,54.80
2022-09-12T07:57:03.394Z,54.80
2022-09-12T08:00:06.710Z,54.80
2022-09-12T08:03:13.590Z,54.60
2022-09-12T08:06:15.966Z,54.60
2022-09-12T08:09:18.235Z,55.00
2022-09-12T08:12:19.847Z,54.30
2022-09-12T08:15:21.585Z,54.20
2022-09-12T08:18:23.001Z,54.40
2022-09-12T08:21:25.518Z,54.30
2022-09-12T08:24:28.792Z,54.10
2022-09-12T08:27:30.230Z,54.10
2022-09-12T08:30:31.897Z,54.00
2022-09-12T08:33:34.716Z,54.20
2022-09-12T08:36:36.154Z,54.10
2022-09-12T08:39:38.318Z,54.00
2022-09-12T08:42:46.782Z,54.00
2022-09-12T08:45:50.066Z,53.90
2022-09-12T08:48:51.868Z,54.00
2022-09-12T08:51:54.462Z,54.00
2022-09-12T08:54:56.614Z,54.00
2022-09-12T08:57:59.820Z,54.00
2022-09-12T09:01:06.397Z,54.00
2022-09-12T09:04:16.782Z,53.90
2022-09-12T09:07:25.189Z,53.90
2022-09-12T09:10:31.970Z,54.30
2022-09-12T09:13:56.428Z,53.90
2022-09-12T09:16:58.731Z,54.20
2022-09-12T09:20:03.678Z,54.20
2022-09-12T09:23:08.094Z,54.10
2022-09-12T09:26:13.863Z,54.20
2022-09-12T09:29:17.375Z,54.30
2022-09-12T09:32:25.076Z,54.10
2022-09-12T09:35:36.189Z,54.00
2022-09-12T09:38:45.117Z,53.90
2022-09-12T09:41:52.259Z,54.10
2022-09-12T09:44:58.911Z,53.90
2022-09-12T09:48:12.822Z,54.20
2022-09-12T09:51:24.268Z,54.00
2022-09-12T09:54:27.574Z,53.90
2022-09-12T09:57:40.156Z,54.30
2022-09-12T10:00:42.065Z,54.10
2022-09-12T10:03:47.881Z,53.90
2022-09-12T10:06:51.100Z,54.10
2022-09-12T10:10:04.898Z,53.90
2022-09-12T10:13:08.423Z,54.00
2022-09-12T10:16:18.977Z,54.00
2022-09-12T10:19:23.792Z,54.00
2022-09-12T10:22:28.837Z,54.20
2022-09-12T10:25:30.155Z,54.10
2022-09-12T10:28:33.549Z,54.00
2022-09-12T10:31:41.000Z,54.20
2022-09-12T10:34:43.411Z,54.10
2022-09-12T10:37:52.389Z,54.20
2022-09-12T10:40:56.264Z,54.10
2022-09-12T10:44:06.303Z,54.20
2022-09-12T10:47:16.967Z,54.10
2022-09-12T10:50:22.866Z,54.20
2022-09-12T10:53:25.167Z,54.10
2022-09-12T10:56:28.160Z,54.20
2022-09-12T10:59:33.561Z,54.20
2022-09-12T11:02:41.045Z,54.30
2022-09-12T11:05:50.880Z,54.30
2022-09-12T11:09:00.675Z,54.00
2022-09-12T11:12:04.069Z,54.10
2022-09-12T11:15:12.418Z,54.10
2022-09-12T11:18:24.680Z,54.10
2022-09-12T11:21:33.305Z,54.00
2022-09-12T11:24:42.153Z,54.00
2022-09-12T11:41:27.973Z,53.80
2022-09-12T11:44:37.667Z,53.60
2022-09-12T11:47:42.513Z,53.80
2022-09-12T11:50:44.182Z,53.80
2022-09-12T11:53:48.685Z,53.70
2022-09-12T11:56:53.214Z,53.70
2022-09-12T11:59:57.817Z,53.70
2022-09-12T12:03:03.427Z,53.70
2022-09-12T12:06:06.798Z,53.60
2022-09-12T12:09:10.564Z,53.80
2022-09-12T12:12:15.821Z,53.60
2022-09-12T12:15:17.774Z,53.60
2022-09-12T12:18:22.446Z,53.50
2022-09-12T12:21:35.456Z,53.50
2022-09-12T12:24:53.088Z,53.50
2022-09-12T12:27:56.058Z,53.60
2022-09-12T12:31:02.522Z,53.60
2022-09-12T12:34:19.073Z,54.20
2022-09-12T12:37:35.372Z,53.70
2022-09-12T12:40:36.784Z,53.90
2022-09-12T12:43:38.749Z,53.90
2022-09-12T12:46:40.199Z,53.80
2022-09-12T12:49:42.059Z,53.90
2022-09-12T12:52:47.136Z,53.80
2022-09-12T12:55:50.175Z,53.70
2022-09-12T12:58:56.912Z,53.70
2022-09-12T13:01:59.438Z,53.80
2022-09-12T13:05:02.456Z,53.80
2022-09-12T13:08:07.136Z,53.70
2022-09-12T13:11:11.347Z,53.80
2022-09-12T13:14:27.604Z,53.70
2022-09-12T13:17:32.498Z,54.00
2022-09-12T13:20:37.689Z,53.80
2022-09-12T13:23:39.172Z,53.90
2022-09-12T13:26:41.295Z,53.70
2022-09-12T13:29:42.660Z,53.90
2022-09-12T13:32:44.612Z,53.90
2022-09-12T16:38:21.290Z,83.50
2022-09-12T16:41:24.432Z,83.30
2022-09-12T16:44:25.725Z,82.90
2022-09-12T16:47:27.293Z,82.90
2022-09-12T16:50:29.567Z,81.50
2022-09-12T16:53:35.141Z,81.20
2022-09-12T16:56:36.437Z,82.00
2022-09-12T16:59:37.729Z,81.60
2022-09-12T17:02:39.043Z,81.80
2022-09-12T17:05:40.370Z,77.30
2022-09-12T17:08:43.442Z,77.80
2022-09-12T17:11:46.413Z,75.00
2022-09-12T17:14:47.654Z,73.80
2022-09-12T17:17:51.318Z,74.40
2022-09-12T17:20:52.736Z,73.40
2022-09-12T17:23:55.287Z,73.60
2022-09-12T17:26:56.529Z,73.70
2022-09-12T17:29:57.893Z,73.90
2022-09-12T17:32:59.512Z,73.60
2022-09-12T17:36:01.753Z,73.40
2022-09-12T17:39:04.044Z,73.80
2022-09-12T17:42:07.195Z,72.50
2022-09-12T17:45:09.046Z,73.60
2022-09-12T17:48:11.008Z,73.50
2022-09-12T17:51:13.448Z,73.00
2022-09-12T17:54:16.680Z,73.40
2022-09-12T17:57:18.012Z,73.30
2022-09-12T18:00:39.833Z,73.50
2022-09-12T18:03:40.885Z,73.20
2022-09-12T18:06:48.011Z,73.60
2022-09-12T18:09:50.123Z,73.40
2022-09-12T18:12:51.480Z,73.40
2022-09-12T18:15:52.889Z,73.40
2022-09-12T18:18:54.320Z,73.60
2022-09-12T18:21:56.122Z,73.80
2022-09-12T18:25:01.182Z,73.50
2022-09-12T18:28:06.084Z,73.90
2022-09-12T18:31:10.994Z,73.90
2022-09-12T18:34:13.082Z,73.60
2022-09-12T18:37:14.407Z,73.80
2022-09-12T18:40:16.267Z,73.70
2022-09-12T18:43:17.561Z,74.40
2022-09-12T18:46:19.021Z,74.00
2022-09-12T18:49:20.363Z,73.80
2022-09-12T18:52:24.745Z,73.90
2022-09-12T18:55:26.829Z,73.90
2022-09-12T18:58:28.086Z,74.00
2022-09-12T19:01:30.000Z,74.10
2022-09-12T19:04:32.050Z,74.00
2022-09-12T19:07:33.407Z,73.90
2022-09-12T19:10:36.151Z,74.10
2022-09-12T19:13:38.184Z,74.00
2022-09-12T19:16:39.446Z,74.20
2022-09-12T19:19:40.795Z,74.50
2022-09-12T19:22:43.086Z,74.10
2022-09-12T19:25:45.199Z,74.70
2022-09-12T19:28:46.688Z,74.40
2022-09-12T19:31:48.100Z,74.70
2022-09-12T19:34:49.432Z,75.10
2022-09-12T19:37:50.703Z,74.30
2022-09-12T19:40:57.234Z,74.50
2022-09-12T19:43:58.628Z,74.50
2022-09-12T19:46:59.896Z,74.60
2022-09-12T19:50:01.198Z,74.50
2022-09-12T19:53:03.159Z,74.80
2022-09-12T19:56:05.698Z,74.10
2022-09-12T19:59:08.131Z,74.30
2022-09-12T20:02:09.716Z,74.50
2022-09-12T20:05:11.150Z,74.60
2022-09-12T20:08:12.586Z,74.80
2022-09-12T20:11:15.566Z,74.60
2022-09-12T20:14:16.887Z,74.30
2022-09-12T20:17:18.224Z,74.50
2022-09-12T20:20:19.530Z,74.50
2022-09-12T20:23:22.372Z,74.70
2022-09-12T20:26:25.895Z,74.30
2022-09-12T20:29:27.164Z,74.60
2022-09-12T20:32:28.576Z,74.60
2022-09-12T20:35:29.846Z,74.70
2022-09-12T20:38:31.157Z,74.50
2022-09-12T20:41:34.489Z,74.20
2022-09-12T20:44:35.871Z,73.80
2022-09-12T20:47:37.121Z,73.70
2022-09-12T20:50:38.626Z,73.70
2022-09-12T20:53:39.874Z,73.50
2022-09-12T20:56:42.059Z,73.80
2022-09-12T20:59:43.356Z,73.50
2022-09-12T21:02:44.721Z,73.20
2022-09-12T21:05:46.262Z,73.20
2022-09-12T21:08:48.399Z,72.90
2022-09-12T21:11:50.334Z,72.80
2022-09-12T21:14:51.603Z,72.90
2022-09-12T21:17:53.014Z,72.90
2022-09-12T21:20:54.776Z,72.80
2022-09-12T21:23:57.686Z,72.10
2022-09-12T21:27:04.008Z,72.10
2022-09-12T21:30:06.137Z,72.00
2022-09-12T21:33:07.432Z,71.80
2022-09-12T21:36:09.161Z,71.70
2022-09-12T21:39:10.493Z,71.20
2022-09-12T21:42:12.357Z,71.20
2022-09-12T21:45:13.855Z,71.20
2022-09-12T21:48:15.257Z,71.00
2022-09-12T21:51:16.588Z,70.50
2022-09-12T21:54:17.818Z,70.30
2022-09-12T21:57:20.719Z,70.30
2022-09-12T22:00:22.331Z,70.30
2022-09-12T22:03:25.252Z,70.20
2022-09-12T22:06:26.503Z,69.90
2022-09-12T22:09:27.794Z,70.00
2022-09-12T22:12:30.538Z,69.90
2022-09-12T22:15:40.942Z,70.00
2022-09-12T22:18:46.293Z,69.80
2022-09-12T22:22:02.225Z,69.60
2022-09-12T22:25:03.742Z,69.50
2022-09-12T22:28:06.392Z,69.50
2022-09-12T22:31:09.481Z,69.40
2022-09-12T22:34:10.775Z,69.00
2022-09-12T22:37:12.099Z,69.20
2022-09-12T22:40:13.516Z,69.00
2022-09-12T22:43:15.948Z,68.80
2022-09-12T22:46:17.284Z,69.10
2022-09-12T22:49:18.652Z,69.00
2022-09-12T22:52:19.932Z,68.90
2022-09-12T22:55:21.155Z,68.90
2022-09-12T22:58:23.265Z,68.70
2022-09-12T23:01:24.555Z,68.70
2022-09-12T23:04:25.797Z,68.70
2022-09-12T23:07:27.763Z,68.70
2022-09-12T23:10:29.047Z,68.70
2022-09-12T23:13:31.392Z,68.70
2022-09-12T23:16:32.719Z,68.50
2022-09-12T23:19:34.134Z,68.60
2022-09-12T23:22:35.539Z,68.60
2022-09-12T23:25:36.817Z,68.60
2022-09-12T23:28:39.619Z,68.40
2022-09-12T23:31:40.901Z,68.40
2022-09-12T23:34:42.164Z,68.10
2022-09-12T23:37:43.411Z,68.30
2022-09-12T23:40:44.672Z,68.00
2022-09-12T23:43:46.525Z,68.30
2022-09-12T23:46:47.809Z,68.20
2022-09-12T23:49:49.165Z,67.90
2022-09-12T23:52:50.487Z,68.00
2022-09-12T23:55:51.718Z,66.80
2022-09-12T23:58:53.811Z,66.30
